Time;durP1;ratioP1;P1;durP2;ratioP2;P2;SDS_P1;SDS_P2;PMS_P1;PMS_P2;Temp;Humidity;BMP_temperature;BMP_pressure;BME280_temperature;BME280_humidity;BME280_pressure;Samples;Min_cycle;Max_cycle;Signal;HPM_P1;HPM_P2
2023/10/27 00:01:04;;;;;;;13.47;12.30;;;10.70;99.90;;;;;;5056457;28;20442;-72
2023/10/27 00:03:32;;;;;;;12.50;11.40;;;10.70;99.90;;;;;;5056098;28;20431;-72
2023/10/27 00:06:00;;;;;;;12.97;11.87;;;10.70;99.90;;;;;;5056100;28;20436;-72
2023/10/27 00:08:28;;;;;;;13.40;12.13;;;10.70;99.90;;;;;;5056163;28;20476;-72
2023/10/27 00:10:57;;;;;;;13.30;12.10;;;10.70;99.90;;;;;;5054466;28;20480;-72
2023/10/27 00:13:25;;;;;;;15.93;12.77;;;10.70;99.90;;;;;;5056552;28;20576;-72
2023/10/27 00:15:53;;;;;;;12.40;11.20;;;10.70;99.90;;;;;;5055926;28;20516;-72
2023/10/27 00:18:21;;;;;;;12.17;10.97;;;10.70;99.90;;;;;;5056067;28;21028;-72
2023/10/27 00:20:50;;;;;;;14.43;11.90;;;10.70;99.90;;;;;;5055807;28;20436;-72
2023/10/27 00:23:19;;;;;;;12.60;11.50;;;10.70;99.90;;;;;;5055507;28;20914;-72
2023/10/27 00:25:47;;;;;;;13.77;12.37;;;10.70;99.90;;;;;;5055536;28;20438;-71
2023/10/27 00:28:17;;;;;;;15.40;14.00;;;10.70;99.90;;;;;;5054351;28;20470;-72
2023/10/27 00:30:45;;;;;;;13.20;12.00;;;10.70;99.90;;;;;;5054146;28;20532;-72
2023/10/27 00:33:13;;;;;;;14.23;12.57;;;10.70;99.90;;;;;;5055755;28;20476;-72
2023/10/27 00:35:41;;;;;;;13.63;12.30;;;10.70;99.90;;;;;;5055506;28;20449;-72
2023/10/27 00:38:09;;;;;;;13.33;12.17;;;10.70;99.90;;;;;;5056233;28;20462;-72
2023/10/27 00:40:38;;;;;;;14.30;12.90;;;10.70;99.90;;;;;;5054045;28;20453;-72
2023/10/27 00:43:07;;;;;;;13.33;12.00;;;10.70;99.90;;;;;;5055508;28;20434;-72
2023/10/27 00:45:37;;;;;;;13.20;12.10;;;10.70;99.90;;;;;;5055322;28;20456;-72
2023/10/27 00:48:05;;;;;;;13.13;11.93;;;10.70;99.90;;;;;;5055111;28;20955;-71
2023/10/27 00:50:33;;;;;;;14.03;12.73;;;10.70;99.90;;;;;;5037329;28;20466;-72
2023/10/27 00:53:02;;;;;;;13.77;12.40;;;10.70;99.90;;;;;;5053790;28;20537;-72
2023/10/27 00:55:31;;;;;;;15.67;13.93;;;10.70;99.90;;;;;;5055311;28;20798;-72
2023/10/27 00:57:59;;;;;;;15.50;14.00;;;10.70;99.90;;;;;;5037393;28;20812;-72
2023/10/27 01:00:28;;;;;;;14.50;13.17;;;10.70;99.90;;;;;;5055386;28;20968;-72
2023/10/27 01:02:57;;;;;;;15.37;13.90;;;10.70;99.90;;;;;;5053525;28;20533;-72
2023/10/27 01:05:25;;;;;;;13.60;12.23;;;10.70;99.90;;;;;;5055240;28;20509;-72
2023/10/27 01:07:55;;;;;;;14.17;12.47;;;10.70;99.90;;;;;;5054697;28;20561;-72
2023/10/27 01:10:23;;;;;;;14.23;13.03;;;10.70;99.90;;;;;;5036823;28;20442;-72
2023/10/27 01:12:51;;;;;;;13.90;12.70;;;10.70;99.90;;;;;;5054918;28;20448;-72
2023/10/27 01:15:20;;;;;;;13.60;12.40;;;10.70;99.90;;;;;;5036594;28;20474;-72
2023/10/27 01:17:48;;;;;;;13.90;12.60;;;10.70;99.90;;;;;;5054624;28;21004;-72
2023/10/27 01:20:18;;;;;;;13.90;12.70;;;10.70;99.90;;;;;;5054578;28;20461;-72
2023/10/27 01:22:48;;;;;;;14.30;13.00;;;10.70;99.90;;;;;;5052681;28;20534;-72
2023/10/27 01:25:17;;;;;;;14.87;13.47;;;10.70;99.90;;;;;;5037106;28;20426;-72
2023/10/27 01:27:46;;;;;;;14.30;13.00;;;10.60;99.90;;;;;;5036436;28;20466;-72
2023/10/27 01:30:14;;;;;;;14.00;12.70;;;10.60;99.90;;;;;;5054645;28;20438;-72
2023/10/27 01:32:43;;;;;;;14.23;13.00;;;10.60;99.90;;;;;;5053000;28;20448;-72
2023/10/27 01:35:11;;;;;;;12.80;11.60;;;10.60;99.90;;;;;;5054205;28;20458;-73
2023/10/27 01:37:40;;;;;;;13.53;12.23;;;10.60;99.90;;;;;;5053245;28;20472;-72
2023/10/27 01:40:11;;;;;;;14.27;13.00;;;10.60;99.90;;;;;;5054822;28;20469;-72
2023/10/27 01:42:39;;;;;;;12.77;11.67;;;10.60;99.90;;;;;;5054542;28;20411;-72
2023/10/27 01:45:08;;;;;;;13.30;12.10;;;10.60;99.90;;;;;;5054414;28;20920;-72
2023/10/27 01:47:36;;;;;;;11.87;10.77;;;10.60;99.90;;;;;;5054066;28;20458;-72
2023/10/27 01:50:05;;;;;;;12.97;11.80;;;10.60;99.90;;;;;;5052818;28;20445;-72
2023/10/27 01:52:33;;;;;;;12.23;11.03;;;10.60;99.90;;;;;;5036226;28;20469;-72
2023/10/27 01:55:01;;;;;;;13.03;11.83;;;10.60;99.90;;;;;;5036265;28;20480;-72
2023/10/27 01:57:31;;;;;;;11.63;10.73;;;10.60;99.90;;;;;;5036070;28;20465;-72
2023/10/27 01:59:59;;;;;;;13.47;12.17;;;10.60;99.90;;;;;;5035866;28;20442;-72
2023/10/27 02:02:27;;;;;;;12.10;11.00;;;10.60;99.90;;;;;;5052735;28;20803;-72
2023/10/27 02:04:55;;;;;;;11.27;10.27;;;10.60;99.90;;;;;;5053748;28;20536;-72
2023/10/27 02:07:24;;;;;;;11.37;10.30;;;10.60;99.90;;;;;;5053793;28;20450;-72
2023/10/27 02:09:53;;;;;;;12.53;11.43;;;10.60;99.90;;;;;;5035669;28;20472;-72
2023/10/27 02:12:21;;;;;;;12.13;11.13;;;10.60;99.90;;;;;;5052395;28;20449;-72
2023/10/27 02:14:50;;;;;;;12.43;11.33;;;10.50;99.90;;;;;;5053918;28;20516;-72
2023/10/27 02:17:19;;;;;;;11.70;10.60;;;10.50;99.90;;;;;;5053569;28;20433;-72
2023/10/27 02:19:48;;;;;;;11.00;9.90;;;10.50;99.90;;;;;;5053486;28;20500;-72
2023/10/27 02:22:17;;;;;;;11.30;10.30;;;10.50;99.90;;;;;;5053814;28;20798;-72
2023/10/27 02:24:45;;;;;;;11.67;10.57;;;10.50;99.90;;;;;;5035687;28;20869;-71
2023/10/27 02:27:13;;;;;;;11.20;10.10;;;10.50;99.90;;;;;;5054071;28;20434;-72
2023/10/27 02:29:41;;;;;;;10.80;9.90;;;10.50;99.90;;;;;;5052196;28;20485;-72
2023/10/27 02:32:11;;;;;;;11.70;10.60;;;10.50;99.90;;;;;;5053381;28;20438;-71
2023/10/27 02:34:39;;;;;;;10.53;9.53;;;10.50;99.90;;;;;;5035385;28;20878;-72
2023/10/27 02:37:07;;;;;;;10.30;9.30;;;10.50;99.90;;;;;;5053218;28;20818;-72
2023/10/27 02:39:36;;;;;;;10.60;9.60;;;10.50;99.90;;;;;;5053285;28;20438;-72
2023/10/27 02:42:04;;;;;;;11.00;9.97;;;10.50;99.90;;;;;;5035320;28;20444;-72
2023/10/27 02:44:32;;;;;;;10.10;9.00;;;10.50;99.90;;;;;;5051825;28;20442;-72
2023/10/27 02:47:00;;;;;;;10.13;9.23;;;10.50;99.90;;;;;;5053416;28;20470;-72
2023/10/27 02:49:30;;;;;;;9.67;8.80;;;10.50;99.90;;;;;;5053174;28;20438;-72
2023/10/27 02:51:58;;;;;;;9.80;8.90;;;10.50;99.90;;;;;;5051938;28;20446;-72
2023/10/27 02:54:26;;;;;;;9.83;8.93;;;10.50;99.90;;;;;;5053702;28;20473;-72
2023/10/27 02:56:54;;;;;;;9.80;8.90;;;10.50;99.90;;;;;;5053464;28;20470;-72
2023/10/27 02:59:23;;;;;;;10.60;9.50;;;10.50;99.90;;;;;;5053022;28;20989;-72
2023/10/27 03:01:52;;;;;;;10.57;9.67;;;10.50;99.90;;;;;;5035221;28;20446;-72
2023/10/27 03:04:20;;;;;;;10.63;9.70;;;10.50;99.90;;;;;;5053195;28;20517;-72
2023/10/27 03:06:50;;;;;;;10.60;9.60;;;10.50;99.90;;;;;;5035214;28;20500;-72
2023/10/27 03:09:18;;;;;;;10.37;9.47;;;10.50;99.90;;;;;;5035398;28;20568;-72
2023/10/27 03:11:46;;;;;;;8.80;8.00;;;10.50;99.90;;;;;;5053528;28;20487;-72
2023/10/27 03:14:16;;;;;;;10.20;9.40;;;10.50;99.90;;;;;;5052882;28;20954;-72
2023/10/27 03:16:45;;;;;;;9.80;9.00;;;10.50;99.90;;;;;;5035091;28;20434;-72
2023/10/27 03:19:13;;;;;;;9.30;8.50;;;10.50;99.90;;;;;;5035010;28;20462;-72
2023/10/27 03:21:41;;;;;;;11.00;10.10;;;10.50;99.90;;;;;;5053125;28;20488;-72
2023/10/27 03:24:10;;;;;;;9.37;8.57;;;10.50;99.90;;;;;;5051581;28;20450;-72
2023/10/27 03:26:39;;;;;;;10.33;9.43;;;10.50;99.90;;;;;;5035012;28;20790;-72
2023/10/27 03:29:07;;;;;;;9.30;8.50;;;10.50;99.90;;;;;;5034995;28;20466;-72
2023/10/27 03:31:36;;;;;;;8.83;8.13;;;10.50;99.90;;;;;;5053360;28;20449;-72
2023/10/27 03:34:04;;;;;;;9.10;8.30;;;10.50;99.90;;;;;;5052772;28;20844;-72
2023/10/27 03:36:32;;;;;;;8.67;7.97;;;10.50;99.90;;;;;;5052685;28;20539;-72
2023/10/27 03:39:00;;;;;;;9.63;8.73;;;10.50;99.90;;;;;;5035003;28;20515;-72
2023/10/27 03:41:30;;;;;;;8.50;7.80;;;10.50;99.90;;;;;;5052665;28;20960;-72
2023/10/27 03:43:58;;;;;;;9.50;8.70;;;10.50;99.90;;;;;;5052751;28;20795;-72
2023/10/27 03:46:26;;;;;;;9.50;8.60;;;10.50;99.90;;;;;;5038060;28;20437;-72
2023/10/27 03:48:55;;;;;;;8.20;7.50;;;10.40;99.90;;;;;;5038392;28;20458;-72
2023/10/27 03:51:25;;;;;;;8.47;7.77;;;10.50;99.90;;;;;;5056328;28;21019;-72
2023/10/27 03:53:54;;;;;;;8.83;8.13;;;10.50;99.90;;;;;;5056292;28;20503;-72
2023/10/27 03:56:22;;;;;;;8.53;7.90;;;10.50;99.90;;;;;;5056794;28;20484;-72
2023/10/27 03:58:52;;;;;;;8.57;7.77;;;10.50;99.90;;;;;;5056369;28;20456;-72
2023/10/27 04:01:20;;;;;;;10.30;9.30;;;10.50;99.90;;;;;;5056494;28;20512;-72
2023/10/27 04:03:48;;;;;;;8.50;7.80;;;10.50;99.90;;;;;;5056113;28;20437;-72
2023/10/27 04:06:16;;;;;;;9.40;8.60;;;10.50;99.90;;;;;;5055013;28;20449;-72
2023/10/27 04:08:45;;;;;;;9.23;8.00;;;10.50;99.90;;;;;;5038392;28;20824;-72
2023/10/27 04:11:13;;;;;;;8.80;8.00;;;10.50;99.90;;;;;;5038186;28;20449;-72
2023/10/27 04:13:41;;;;;;;8.70;8.00;;;10.50;99.90;;;;;;5038662;28;20448;-72
2023/10/27 04:16:10;;;;;;;8.73;7.93;;;10.50;99.90;;;;;;5056051;28;20469;-72
2023/10/27 04:18:39;;;;;;;8.50;7.80;;;10.50;99.90;;;;;;5055801;28;20869;-72
2023/10/27 04:21:07;;;;;;;8.90;8.10;;;10.50;99.90;;;;;;5055815;28;20521;-72
2023/10/27 04:23:35;;;;;;;9.23;7.50;;;10.50;99.90;;;;;;5056332;28;20438;-72
2023/10/27 04:26:03;;;;;;;9.30;8.40;;;10.50;99.90;;;;;;5055765;28;20484;-72
2023/10/27 04:28:36;;;;;;;8.90;8.10;;;10.50;99.90;;;;;;5056111;28;20499;-72
2023/10/27 04:31:04;;;;;;;9.03;7.70;;;10.50;99.90;;;;;;5055608;28;20801;-72
2023/10/27 04:33:37;;;;;;;8.40;7.60;;;10.50;99.90;;;;;;5055573;28;20437;-72
2023/10/27 04:36:06;;;;;;;8.80;7.73;;;10.50;99.90;;;;;;5055547;28;20477;-72
2023/10/27 04:38:34;;;;;;;8.53;7.73;;;10.50;99.90;;;;;;5054214;28;20504;-72
2023/10/27 04:41:02;;;;;;;8.70;8.00;;;10.50;99.90;;;;;;5055691;28;20923;-72
2023/10/27 04:43:31;;;;;;;10.53;9.37;;;10.50;99.90;;;;;;5055829;28;21042;-72
2023/10/27 04:45:59;;;;;;;10.07;9.27;;;10.50;99.90;;;;;;5055360;28;20943;-72
2023/10/27 04:48:27;;;;;;;8.70;7.90;;;10.50;99.90;;;;;;5055326;28;20450;-72
2023/10/27 04:51:02;;;;;;;9.60;8.80;;;10.50;99.90;;;;;;5055558;28;20840;-72
2023/10/27 04:53:31;;;;;;;9.60;8.80;;;10.50;99.90;;;;;;5055812;28;20844;-72
2023/10/27 04:55:59;;;;;;;9.10;8.40;;;10.50;99.90;;;;;;5054482;28;20501;-72
2023/10/27 04:58:28;;;;;;;8.97;8.17;;;10.40;99.90;;;;;;5054611;28;20446;-71
2023/10/27 05:00:56;;;;;;;9.07;8.37;;;10.50;99.90;;;;;;5055189;28;20537;-71
2023/10/27 05:03:24;;;;;;;9.97;9.07;;;10.40;99.90;;;;;;5055039;28;20433;-71
2023/10/27 05:05:52;;;;;;;9.63;8.83;;;10.40;99.90;;;;;;5055270;28;20439;-71
2023/10/27 05:08:22;;;;;;;9.10;8.27;;;10.40;99.90;;;;;;5055081;28;20458;-71
2023/10/27 05:10:51;;;;;;;10.30;9.50;;;10.50;99.90;;;;;;5054867;28;20472;-71
2023/10/27 05:13:20;;;;;;;9.67;8.77;;;10.40;99.90;;;;;;5054811;28;20426;-71
2023/10/27 05:15:54;;;;;;;10.50;9.60;;;10.40;99.90;;;;;;5036824;28;21015;-71
2023/10/27 05:18:22;;;;;;;9.97;9.03;;;10.40;99.90;;;;;;5054830;28;21072;-71
2023/10/27 05:20:51;;;;;;;9.87;8.87;;;10.40;99.90;;;;;;5054717;28;20434;-71
2023/10/27 05:23:21;;;;;;;10.20;9.20;;;10.40;99.90;;;;;;5055142;28;20446;-71
2023/10/27 05:25:52;;;;;;;9.73;8.77;;;10.50;99.90;;;;;;5054579;28;20870;-71
2023/10/27 05:28:20;;;;;;;10.10;9.13;;;10.40;99.90;;;;;;5054679;28;20509;-71
2023/10/27 05:30:50;;;;;;;9.73;8.90;;;10.40;99.90;;;;;;5036686;28;20442;-71
2023/10/27 05:33:18;;;;;;;10.17;9.30;;;10.40;99.90;;;;;;5036746;28;20461;-71
2023/10/27 05:35:46;;;;;;;10.13;9.23;;;10.40;99.90;;;;;;5054322;28;20470;-72
2023/10/27 05:38:18;;;;;;;10.00;8.87;;;10.40;99.90;;;;;;5054407;28;20450;-72
2023/10/27 05:40:47;;;;;;;9.20;8.40;;;10.40;99.90;;;;;;5054658;28;20427;-70
2023/10/27 05:43:17;;;;;;;10.37;9.30;;;10.40;99.90;;;;;;5054271;28;20441;-71
2023/10/27 05:45:46;;;;;;;10.10;9.23;;;10.40;99.90;;;;;;5054198;28;20438;-71
2023/10/27 05:48:16;;;;;;;10.03;9.03;;;10.40;99.90;;;;;;5054416;28;20523;-71
2023/10/27 05:50:44;;;;;;;9.00;8.20;;;10.40;99.90;;;;;;5054387;28;20442;-71
2023/10/27 05:53:12;;;;;;;10.00;9.00;;;10.40;99.90;;;;;;5053994;28;20528;-71
2023/10/27 05:55:40;;;;;;;11.40;10.40;;;10.40;99.90;;;;;;5053943;28;20896;-71
2023/10/27 05:58:10;;;;;;;10.67;9.67;;;10.40;99.90;;;;;;5053883;28;20454;-72
2023/10/27 06:00:38;;;;;;;11.57;10.37;;;10.40;99.90;;;;;;5053983;28;20438;-72
2023/10/27 06:03:06;;;;;;;10.93;9.83;;;10.40;99.90;;;;;;5036093;28;20450;-71
2023/10/27 06:05:34;;;;;;;11.63;10.40;;;10.40;99.90;;;;;;5054136;28;20488;-72
2023/10/27 06:08:03;;;;;;;12.50;11.40;;;10.40;99.90;;;;;;5052223;28;20515;-72
2023/10/27 06:10:31;;;;;;;10.47;9.47;;;10.40;99.90;;;;;;5053861;28;20438;-72
2023/10/27 06:12:59;;;;;;;11.67;10.50;;;10.40;99.90;;;;;;5053791;28;20430;-71
2023/10/27 06:15:29;;;;;;;12.10;10.90;;;10.40;99.90;;;;;;5053957;28;20445;-71
2023/10/27 06:17:57;;;;;;;12.23;11.03;;;10.40;99.90;;;;;;5053642;28;20477;-72
2023/10/27 06:20:25;;;;;;;11.50;10.30;;;10.40;99.90;;;;;;5053558;28;20438;-71
2023/10/27 06:22:54;;;;;;;11.57;10.37;;;10.40;99.90;;;;;;5053870;28;20442;-72
2023/10/27 06:25:25;;;;;;;12.23;11.13;;;10.40;99.90;;;;;;5053444;28;20434;-72
2023/10/27 06:27:54;;;;;;;13.77;11.93;;;10.40;99.90;;;;;;5053703;28;20548;-72
2023/10/27 06:30:23;;;;;;;11.00;10.00;;;10.40;99.90;;;;;;5053743;28;20438;-71
2023/10/27 06:32:52;;;;;;;12.20;10.33;;;10.40;99.90;;;;;;5053367;28;20443;-72
2023/10/27 06:35:20;;;;;;;10.87;9.87;;;10.40;99.90;;;;;;5053361;28;20914;-72
2023/10/27 06:37:48;;;;;;;11.57;10.37;;;10.40;99.90;;;;;;5035410;28;20505;-72
2023/10/27 06:40:17;;;;;;;9.90;8.40;;;10.40;99.90;;;;;;5053612;28;20438;-72
2023/10/27 06:42:45;;;;;;;11.23;10.13;;;10.40;99.90;;;;;;5053272;28;20536;-72
2023/10/27 06:45:13;;;;;;;10.27;9.27;;;10.40;99.90;;;;;;5053211;28;20529;-72
2023/10/27 06:47:41;;;;;;;11.33;10.30;;;10.40;99.90;;;;;;5053146;28;20561;-72
2023/10/27 06:50:12;;;;;;;11.27;9.37;;;10.40;99.90;;;;;;5053189;28;20430;-72
2023/10/27 06:52:40;;;;;;;10.27;9.20;;;10.40;99.90;;;;;;5051926;28;20494;-72
2023/10/27 06:55:08;;;;;;;9.30;8.30;;;10.40;99.90;;;;;;5035255;28;20442;-72
2023/10/27 06:57:37;;;;;;;10.10;9.10;;;10.40;99.90;;;;;;5035064;28;20488;-72
2023/10/27 07:00:07;;;;;;;11.60;9.40;;;10.50;99.90;;;;;;5053149;28;20918;-72
2023/10/27 07:02:35;;;;;;;11.90;10.70;;;10.40;99.90;;;;;;5052605;28;20537;-72
2023/10/27 07:05:24;;;;;;;11.87;10.67;;;10.40;99.90;;;;;;5052996;28;20497;-71
2023/10/27 07:07:53;;;;;;;11.30;10.10;;;10.40;99.90;;;;;;5051795;28;20466;-72
2023/10/27 07:10:21;;;;;;;12.63;10.20;;;10.50;99.90;;;;;;5052982;28;20848;-71
2023/10/27 07:12:49;;;;;;;11.83;9.87;;;10.50;99.90;;;;;;5051726;28;20445;-72
2023/10/27 07:15:19;;;;;;;12.47;10.37;;;10.50;99.90;;;;;;5053259;28;20444;-72
2023/10/27 07:17:47;;;;;;;12.07;10.30;;;10.50;99.90;;;;;;5052821;28;20513;-72
2023/10/27 07:20:16;;;;;;;11.40;9.80;;;10.50;99.90;;;;;;5054672;28;20440;-72
2023/10/27 07:22:45;;;;;;;10.33;8.10;;;10.50;99.90;;;;;;5057455;28;20434;-71
2023/10/27 07:25:14;;;;;;;10.90;9.80;;;10.50;99.90;;;;;;5039056;28;20525;-72
2023/10/27 07:27:43;;;;;;;11.50;9.23;;;10.50;99.90;;;;;;5057010;28;20477;-72
2023/10/27 07:30:12;;;;;;;12.73;9.63;;;10.50;99.90;;;;;;5056771;28;20442;-72
2023/10/27 07:32:40;;;;;;;11.23;10.10;;;10.50;99.90;;;;;;5057300;28;20911;-71
2023/10/27 07:35:09;;;;;;;12.50;11.00;;;10.50;99.90;;;;;;5038675;28;20445;-72
2023/10/27 07:37:37;;;;;;;13.17;11.77;;;10.50;99.90;;;;;;5055249;28;20572;-71
2023/10/27 07:40:08;;;;;;;13.67;11.47;;;10.50;99.90;;;;;;5056864;28;20533;-71
2023/10/27 07:42:36;;;;;;;14.07;10.77;;;10.50;99.90;;;;;;5056837;28;20426;-71
2023/10/27 07:45:05;;;;;;;12.77;11.33;;;10.60;99.90;;;;;;5057057;28;20792;-71
2023/10/27 07:47:33;;;;;;;17.50;12.70;;;10.50;99.90;;;;;;5056374;28;20541;-71
2023/10/27 07:50:02;;;;;;;14.70;13.20;;;10.60;99.90;;;;;;5056382;28;20484;-71
2023/10/27 07:52:30;;;;;;;15.20;12.10;;;10.60;99.90;;;;;;5056902;28;20438;-71
2023/10/27 07:54:58;;;;;;;14.73;13.13;;;10.60;99.90;;;;;;5056559;28;20511;-72
2023/10/27 07:57:28;;;;;;;15.87;12.93;;;10.60;99.90;;;;;;5056407;28;20477;-72
2023/10/27 07:59:56;;;;;;;15.90;13.50;;;10.60;99.90;;;;;;5056304;28;20488;-72
2023/10/27 08:02:24;;;;;;;14.87;13.27;;;10.60;99.90;;;;;;5056168;28;20784;-72
2023/10/27 08:04:52;;;;;;;17.20;13.90;;;10.60;99.90;;;;;;5056454;28;20436;-72
2023/10/27 08:07:21;;;;;;;17.10;13.10;;;10.60;99.90;;;;;;5056514;28;20442;-72
2023/10/27 08:09:49;;;;;;;17.67;14.23;;;10.60;99.90;;;;;;5056079;28;20438;-72
2023/10/27 08:12:20;;;;;;;16.30;14.10;;;10.60;99.90;;;;;;5056149;28;21046;-72
2023/10/27 08:14:50;;;;;;;19.60;14.87;;;10.60;99.90;;;;;;5038164;28;20453;-72
2023/10/27 08:17:19;;;;;;;17.43;13.57;;;10.60;99.90;;;;;;5056052;28;20505;-72
2023/10/27 08:19:47;;;;;;;20.90;17.20;;;10.60;99.90;;;;;;5055930;28;20496;-72
2023/10/27 08:22:15;;;;;;;23.63;17.20;;;10.60;99.90;;;;;;5055900;28;20445;-72
2023/10/27 08:24:43;;;;;;;19.40;16.00;;;10.60;99.90;;;;;;5056403;28;20525;-72
2023/10/27 08:27:11;;;;;;;23.90;18.70;;;10.60;99.90;;;;;;5055673;28;20993;-72
2023/10/27 08:29:40;;;;;;;21.27;17.10;;;10.60;99.90;;;;;;5055702;28;20434;-72
2023/10/27 08:32:09;;;;;;;24.07;18.27;;;10.60;99.90;;;;;;5055538;28;20438;-72
2023/10/27 08:34:37;;;;;;;24.63;18.80;;;10.60;99.90;;;;;;5055863;28;20822;-72
2023/10/27 08:37:06;;;;;;;25.53;19.13;;;10.60;99.90;;;;;;5055362;28;20445;-72
2023/10/27 08:39:34;;;;;;;24.90;20.57;;;10.70;99.90;;;;;;5055564;28;20445;-72
2023/10/27 08:42:04;;;;;;;27.80;22.30;;;10.70;99.90;;;;;;5055440;28;20521;-72
2023/10/27 08:44:33;;;;;;;27.63;22.33;;;10.70;99.90;;;;;;5055982;28;20903;-72
2023/10/27 08:47:03;;;;;;;34.97;24.57;;;10.70;99.90;;;;;;5055306;28;20453;-72
2023/10/27 08:49:33;;;;;;;31.10;24.17;;;10.70;99.90;;;;;;5055312;28;20483;-73
2023/10/27 08:52:02;;;;;;;30.03;22.97;;;10.70;99.90;;;;;;5055210;28;20442;-72
2023/10/27 08:54:31;;;;;;;29.33;23.73;;;10.70;99.90;;;;;;5055448;28;20781;-71
2023/10/27 08:56:59;;;;;;;33.03;23.73;;;10.60;99.90;;;;;;5055140;28;20434;-72
2023/10/27 08:59:27;;;;;;;30.70;23.67;;;10.60;99.90;;;;;;5054935;28;20470;-72
2023/10/27 09:01:55;;;;;;;31.47;22.67;;;10.60;99.90;;;;;;5055083;28;20516;-72
2023/10/27 09:04:24;;;;;;;29.17;22.77;;;10.60;99.90;;;;;;5055311;28;20496;-73
2023/10/27 09:06:54;;;;;;;30.13;22.00;;;10.60;99.90;;;;;;5060655;28;20943;-73
2023/10/27 09:09:23;;;;;;;28.67;22.90;;;10.60;99.90;;;;;;5058597;28;20478;-73
2023/10/27 09:11:51;;;;;;;29.90;23.50;;;10.60;99.90;;;;;;5056831;28;20500;-73
2023/10/27 09:14:26;;;;;;;30.93;22.80;;;10.60;99.90;;;;;;5057682;28;20438;-73
2023/10/27 09:17:06;;;;;;;30.00;22.80;;;10.60;99.90;;;;;;5058006;28;20414;-73
2023/10/27 09:19:34;;;;;;;30.13;22.03;;;10.60;99.90;;;;;;5055916;28;20457;-73
2023/10/27 09:22:15;;;;;;;32.47;22.90;;;10.60;99.90;;;;;;5056110;28;21014;-73
2023/10/27 09:24:44;;;;;;;27.77;21.93;;;10.60;99.90;;;;;;5055665;28;20422;-72
2023/10/27 09:27:13;;;;;;;27.20;21.33;;;10.60;99.90;;;;;;5055964;28;20521;-73
2023/10/27 09:29:42;;;;;;;26.83;21.00;;;10.60;99.90;;;;;;5056044;28;20434;-73
2023/10/27 09:32:24;;;;;;;26.20;21.37;;;10.60;99.90;;;;;;5054867;28;20529;-72
2023/10/27 09:35:08;;;;;;;23.93;20.53;;;10.60;99.90;;;;;;5053615;28;20464;-72
2023/10/27 09:37:38;;;;;;;26.70;20.33;;;10.60;99.90;;;;;;5054717;28;20454;-72
2023/10/27 09:40:09;;;;;;;28.27;21.10;;;10.60;99.90;;;;;;5054665;28;20435;-73
2023/10/27 09:42:38;;;;;;;24.80;20.30;;;10.60;99.90;;;;;;5036172;28;20504;-73
2023/10/27 09:45:11;;;;;;;22.77;19.70;;;10.60;99.90;;;;;;5054392;28;20488;-72
2023/10/27 09:47:46;;;;;;;25.47;19.30;;;10.60;99.90;;;;;;5054479;28;20497;-72
2023/10/27 09:50:16;;;;;;;23.67;21.13;;;10.60;99.90;;;;;;5054799;28;20871;-72
2023/10/27 09:52:46;;;;;;;26.17;22.00;;;10.60;99.90;;;;;;5054240;28;20434;-73
2023/10/27 09:55:17;;;;;;;27.40;21.30;;;10.60;99.90;;;;;;5054236;28;20844;-72
2023/10/27 09:57:45;;;;;;;24.30;19.70;;;10.60;99.90;;;;;;5054047;28;20560;-71
2023/10/27 10:00:16;;;;;;;22.83;19.27;;;10.60;99.90;;;;;;5054257;28;20931;-73
2023/10/27 10:02:45;;;;;;;22.77;18.80;;;10.60;99.90;;;;;;5054002;28;20480;-72
2023/10/27 10:05:13;;;;;;;21.93;17.93;;;10.60;99.90;;;;;;5054027;28;20465;-72
2023/10/27 10:07:44;;;;;;;23.80;19.20;;;10.70;99.90;;;;;;5053804;28;20512;-73
2023/10/27 10:10:29;;;;;;;20.70;17.20;;;10.70;99.90;;;;;;5053758;28;20966;-73
2023/10/27 10:13:09;;;;;;;18.87;16.87;;;10.70;99.90;;;;;;5054097;28;20911;-72
2023/10/27 10:15:38;;;;;;;20.40;17.20;;;10.70;99.90;;;;;;5054137;28;20418;-72
2023/10/27 10:18:08;;;;;;;21.20;17.77;;;10.70;99.90;;;;;;5053791;28;20462;-72
2023/10/27 10:20:58;;;;;;;19.30;16.80;;;10.70;99.90;;;;;;5035759;28;20449;-72
2023/10/27 10:24:07;;;;;;;21.13;16.90;;;10.70;99.90;;;;;;5054196;28;20454;-72
2023/10/27 10:27:05;;;;;;;23.27;19.20;;;10.70;99.90;;;;;;5054118;28;20437;-72
2023/10/27 10:29:34;;;;;;;20.37;16.60;;;10.70;99.90;;;;;;5054403;28;20801;-72
2023/10/27 10:32:29;;;;;;;18.47;16.67;;;10.70;99.90;;;;;;5035880;28;20488;-72
2023/10/27 10:35:23;;;;;;;17.73;15.83;;;10.80;99.90;;;;;;5053413;28;20476;-72
2023/10/27 10:37:55;;;;;;;21.33;16.80;;;10.80;99.90;;;;;;5035414;28;20922;-72
2023/10/27 10:40:29;;;;;;;18.97;16.97;;;10.80;99.90;;;;;;5053597;28;20454;-72
2023/10/27 10:43:20;;;;;;;30.93;27.93;;;10.80;99.90;;;;;;5053312;28;20453;-72
2023/10/27 10:45:51;;;;;;;19.00;17.00;;;10.90;99.90;;;;;;5053574;28;20483;-72
2023/10/27 10:48:19;;;;;;;19.27;17.27;;;10.80;99.90;;;;;;5053499;28;20453;-72
2023/10/27 10:50:48;;;;;;;20.50;17.33;;;10.90;99.90;;;;;;5053224;28;20445;-72
2023/10/27 10:53:17;;;;;;;20.70;18.60;;;10.90;99.90;;;;;;5053146;28;20434;-72
2023/10/27 10:55:46;;;;;;;19.40;17.30;;;10.90;99.90;;;;;;5052456;28;20995;-72
2023/10/27 10:58:25;;;;;;;20.30;16.37;;;10.90;99.90;;;;;;5053130;28;20485;-72
2023/10/27 11:00:55;;;;;;;22.73;20.10;;;10.90;99.90;;;;;;5035261;28;20537;-72
2023/10/27 11:03:25;;;;;;;25.50;22.20;;;11.00;99.90;;;;;;5053059;28;20488;-72
2023/10/27 11:05:57;;;;;;;22.37;18.43;;;11.00;99.90;;;;;;5053473;28;20442;-72
2023/10/27 11:08:27;;;;;;;19.27;17.27;;;11.00;99.90;;;;;;5052993;28;20450;-72
2023/10/27 11:11:03;;;;;;;20.63;17.27;;;11.00;99.90;;;;;;5035203;28;20541;-72
2023/10/27 11:13:35;;;;;;;18.07;16.17;;;11.00;99.90;;;;;;5053313;28;20832;-72
2023/10/27 11:16:13;;;;;;;19.30;16.27;;;11.00;99.90;;;;;;5052967;28;20954;-72
2023/10/27 11:18:42;;;;;;;19.30;16.07;;;11.00;99.90;;;;;;5035206;28;20473;-72
2023/10/27 11:21:16;;;;;;;18.87;16.90;;;11.00;99.90;;;;;;5053514;28;20528;-73
2023/10/27 11:23:45;;;;;;;19.10;16.33;;;11.00;99.90;;;;;;5052959;28;20521;-71
2023/10/27 11:26:14;;;;;;;18.47;16.37;;;11.00;99.90;;;;;;5052906;28;20433;-72
2023/10/27 11:28:44;;;;;;;18.47;16.47;;;11.00;99.90;;;;;;5053011;28;20824;-72
2023/10/27 11:31:19;;;;;;;19.03;16.47;;;11.00;99.90;;;;;;5052838;28;20824;-72
2023/10/27 11:33:57;;;;;;;18.30;16.33;;;11.00;99.90;;;;;;5052767;28;20426;-72
2023/10/27 11:36:26;;;;;;;19.10;17.10;;;11.10;99.90;;;;;;5052682;28;20496;-72
2023/10/27 11:38:54;;;;;;;20.47;18.27;;;11.00;99.90;;;;;;5034942;28;20535;-72
2023/10/27 11:41:23;;;;;;;18.63;16.27;;;11.00;99.90;;;;;;5052619;28;20433;-72
2023/10/27 11:43:52;;;;;;;18.40;16.50;;;11.00;99.90;;;;;;5052677;28;20438;-71
2023/10/27 11:46:21;;;;;;;20.13;17.83;;;11.00;99.90;;;;;;5052996;28;20932;-72
2023/10/27 11:48:49;;;;;;;18.90;16.90;;;11.00;99.90;;;;;;5052580;28;20462;-72
2023/10/27 11:51:17;;;;;;;20.57;18.47;;;11.00;99.90;;;;;;5052863;28;20430;-72
2023/10/27 11:53:46;;;;;;;16.73;14.93;;;11.00;99.90;;;;;;5034945;28;20442;-72
2023/10/27 11:56:14;;;;;;;22.27;19.90;;;11.00;99.90;;;;;;5052596;28;20860;-72
2023/10/27 11:58:43;;;;;;;18.47;16.57;;;11.00;99.90;;;;;;5053448;28;20880;-72
2023/10/27 12:01:12;;;;;;;19.53;17.53;;;11.00;99.90;;;;;;5052516;28;20474;-72
2023/10/27 12:03:40;;;;;;;18.40;16.30;;;11.00;99.90;;;;;;5051278;28;20982;-72
2023/10/27 12:06:07;;;;;;;19.03;16.67;;;11.00;99.90;;;;;;5035874;28;20442;-72
2023/10/27 12:08:36;;;;;;;17.83;15.93;;;11.00;99.90;;;;;;5054764;28;20531;-72
2023/10/27 12:11:04;;;;;;;19.30;16.90;;;11.00;99.90;;;;;;5056725;28;20484;-72
2023/10/27 12:13:32;;;;;;;18.13;16.17;;;11.00;99.90;;;;;;5055994;28;20434;-72
2023/10/27 12:16:00;;;;;;;19.30;17.37;;;11.10;99.90;;;;;;5056208;28;20450;-72
2023/10/27 12:18:32;;;;;;;23.50;19.97;;;11.10;99.90;;;;;;5055839;28;20450;-72
2023/10/27 12:21:02;;;;;;;24.33;20.27;;;11.10;99.90;;;;;;5055814;28;20851;-72
2023/10/27 12:23:32;;;;;;;20.90;18.67;;;11.10;99.90;;;;;;5054544;28;20442;-72
2023/10/27 12:26:01;;;;;;;19.27;17.27;;;11.10;99.90;;;;;;5055759;28;20513;-72
2023/10/27 12:28:29;;;;;;;20.13;18.03;;;11.10;99.90;;;;;;5055843;28;20500;-72
2023/10/27 12:31:00;;;;;;;21.10;18.93;;;11.10;99.90;;;;;;5055697;28;20465;-72
2023/10/27 12:33:30;;;;;;;22.50;20.17;;;11.10;99.90;;;;;;5055996;28;20472;-71
2023/10/27 12:35:58;;;;;;;22.80;20.50;;;11.10;99.90;;;;;;5055609;28;21040;-72
2023/10/27 12:38:26;;;;;;;20.60;18.40;;;11.10;99.90;;;;;;5055732;28;20963;-72
2023/10/27 12:40:56;;;;;;;21.07;19.00;;;11.10;99.90;;;;;;5037806;28;20477;-72
2023/10/27 12:43:24;;;;;;;21.60;19.33;;;11.10;99.90;;;;;;5055744;28;20442;-72